sensor_id;sensor_type;location;lat;lon;timestamp;pressure;altitude;pressure_sealevel;temperature;humidity
40245;BME280;25963;42.694;23.600;2023-02-27T00:01:58;94352.91;;;10.26;87.50
40245;BME280;25963;42.694;23.600;2023-02-27T00:04:24;94353.84;;;10.20;89.79
40245;BME280;25963;42.694;23.600;2023-02-27T00:06:49;94354.69;;;10.20;87.50
40245;BME280;25963;42.694;23.600;2023-02-27T00:09:17;94352.09;;;10.09;87.41
40245;BME280;25963;42.694;23.600;2023-02-27T00:11:44;94334.47;;;9.97;88.42
40245;BME280;25963;42.694;23.600;2023-02-27T00:14:10;94332.88;;;9.96;88.16
40245;BME280;25963;42.694;23.600;2023-02-27T00:16:36;94334.47;;;9.97;88.86
40245;BME280;25963;42.694;23.600;2023-02-27T00:19:02;94328.84;;;10.05;88.06
40245;BME280;25963;42.694;23.600;2023-02-27T00:21:29;94329.56;;;9.89;89.52
40245;BME280;25963;42.694;23.600;2023-02-27T00:23:55;94333.81;;;9.78;90.15
40245;BME280;25963;42.694;23.600;2023-02-27T00:26:21;94332.41;;;9.99;89.57
40245;BME280;25963;42.694;23.600;2023-02-27T00:28:46;94338.34;;;10.06;88.37
40245;BME280;25963;42.694;23.600;2023-02-27T00:31:13;94338.44;;;10.12;88.06
40245;BME280;25963;42.694;23.600;2023-02-27T00:33:38;94344.94;;;10.21;88.62
40245;BME280;25963;42.694;23.600;2023-02-27T00:36:05;94344.25;;;10.14;90.56
40245;BME280;25963;42.694;23.600;2023-02-27T00:38:31;94347.47;;;10.16;89.80
40245;BME280;25963;42.694;23.600;2023-02-27T00:40:57;94343.59;;;10.06;90.55
40245;BME280;25963;42.694;23.600;2023-02-27T00:43:24;94339.72;;;9.97;90.95
40245;BME280;25963;42.694;23.600;2023-02-27T00:45:49;94342.97;;;9.88;90.73
40245;BME280;25963;42.694;23.600;2023-02-27T00:48:15;94357.13;;;9.98;90.26
40245;BME280;25963;42.694;23.600;2023-02-27T00:50:41;94352.31;;;9.95;89.97
40245;BME280;25963;42.694;23.600;2023-02-27T00:53:07;94352.78;;;9.92;89.88
40245;BME280;25963;42.694;23.600;2023-02-27T00:55:32;94366.31;;;9.84;89.68
40245;BME280;25963;42.694;23.600;2023-02-27T00:57:58;94360.25;;;9.72;90.36
40245;BME280;25963;42.694;23.600;2023-02-27T01:00:23;94354.59;;;9.51;89.91
40245;BME280;25963;42.694;23.600;2023-02-27T01:02:49;94358.69;;;9.35;91.07
40245;BME280;25963;42.694;23.600;2023-02-27T01:05:17;94348.84;;;9.07;93.80
40245;BME280;25963;42.694;23.600;2023-02-27T01:07:42;94345.28;;;9.02;94.27
40245;BME280;25963;42.694;23.600;2023-02-27T01:10:10;94348.72;;;9.02;94.77
40245;BME280;25963;42.694;23.600;2023-02-27T01:12:35;94340.25;;;8.88;96.03
40245;BME280;25963;42.694;23.600;2023-02-27T01:15:02;94339.44;;;8.88;96.29
40245;BME280;25963;42.694;23.600;2023-02-27T01:17:28;94346.38;;;8.82;96.79
40245;BME280;25963;42.694;23.600;2023-02-27T01:19:54;94341.97;;;8.83;96.56
40245;BME280;25963;42.694;23.600;2023-02-27T01:22:19;94342.06;;;8.88;94.49
40245;BME280;25963;42.694;23.600;2023-02-27T01:24:44;94327.06;;;8.65;96.57
40245;BME280;25963;42.694;23.600;2023-02-27T01:27:10;94339.81;;;8.61;99.60
40245;BME280;25963;42.694;23.600;2023-02-27T01:29:35;94343.16;;;8.57;100.00
40245;BME280;25963;42.694;23.600;2023-02-27T01:32:01;94351.69;;;8.52;100.00
40245;BME280;25963;42.694;23.600;2023-02-27T01:34:26;94352.97;;;8.61;100.00
40245;BME280;25963;42.694;23.600;2023-02-27T01:36:52;94355.16;;;8.64;100.00
40245;BME280;25963;42.694;23.600;2023-02-27T01:39:17;94346.28;;;8.77;100.00
40245;BME280;25963;42.694;23.600;2023-02-27T01:41:43;94355.13;;;8.95;100.00
40245;BME280;25963;42.694;23.600;2023-02-27T01:44:11;94346.66;;;9.04;100.00
40245;BME280;25963;42.694;23.600;2023-02-27T01:46:38;94354.47;;;9.23;100.00
40245;BME280;25963;42.694;23.600;2023-02-27T01:49:20;94358.00;;;9.28;100.00
40245;BME280;25963;42.694;23.600;2023-02-27T01:52:01;94374.47;;;9.35;100.00
40245;BME280;25963;42.694;23.600;2023-02-27T01:54:32;94380.53;;;9.36;100.00
40245;BME280;25963;42.694;23.600;2023-02-27T01:57:00;94372.66;;;9.36;100.00
40245;BME280;25963;42.694;23.600;2023-02-27T01:59:27;94381.72;;;9.40;100.00
40245;BME280;25963;42.694;23.600;2023-02-27T02:01:55;94389.16;;;9.43;100.00
40245;BME280;25963;42.694;23.600;2023-02-27T02:04:27;94387.75;;;9.41;100.00
40245;BME280;25963;42.694;23.600;2023-02-27T02:07:00;94394.16;;;9.45;100.00
40245;BME280;25963;42.694;23.600;2023-02-27T02:09:29;94403.78;;;9.51;100.00
40245;BME280;25963;42.694;23.600;2023-02-27T02:11:56;94393.16;;;9.34;100.00
40245;BME280;25963;42.694;23.600;2023-02-27T02:14:23;94409.63;;;9.53;100.00
40245;BME280;25963;42.694;23.600;2023-02-27T02:26:09;94452.44;;;9.60;100.00
40245;BME280;25963;42.694;23.600;2023-02-27T02:34:37;94428.75;;;9.60;100.00
40245;BME280;25963;42.694;23.600;2023-02-27T02:40:15;94512.78;;;9.62;100.00
40245;BME280;25963;42.694;23.600;2023-02-27T02:50:38;94644.16;;;8.84;100.00
40245;BME280;25963;42.694;23.600;2023-02-27T02:55:59;94683.97;;;8.88;100.00
40245;BME280;25963;42.694;23.600;2023-02-27T02:58:47;94686.97;;;8.73;100.00
40245;BME280;25963;42.694;23.600;2023-02-27T03:01:24;94687.44;;;8.88;100.00
40245;BME280;25963;42.694;23.600;2023-02-27T03:04:23;94686.69;;;8.81;100.00
40245;BME280;25963;42.694;23.600;2023-02-27T03:07:01;94696.75;;;8.84;100.00
40245;BME280;25963;42.694;23.600;2023-02-27T03:09:36;94705.59;;;8.72;100.00
40245;BME280;25963;42.694;23.600;2023-02-27T03:12:04;94697.63;;;8.78;100.00
40245;BME280;25963;42.694;23.600;2023-02-27T03:14:41;94709.75;;;8.79;100.00
40245;BME280;25963;42.694;23.600;2023-02-27T03:17:14;94700.53;;;8.70;100.00
40245;BME280;25963;42.694;23.600;2023-02-27T03:19:49;94693.25;;;8.72;100.00
40245;BME280;25963;42.694;23.600;2023-02-27T03:22:33;94701.28;;;8.77;100.00
40245;BME280;25963;42.694;23.600;2023-02-27T03:25:02;94698.31;;;8.74;100.00
40245;BME280;25963;42.694;23.600;2023-02-27T03:27:32;94688.25;;;8.64;100.00
40245;BME280;25963;42.694;23.600;2023-02-27T03:32:47;94671.69;;;8.63;100.00
40245;BME280;25963;42.694;23.600;2023-02-27T03:35:17;94676.66;;;8.72;100.00
40245;BME280;25963;42.694;23.600;2023-02-27T03:37:55;94680.75;;;8.67;100.00
40245;BME280;25963;42.694;23.600;2023-02-27T03:40:38;94698.22;;;8.80;100.00
40245;BME280;25963;42.694;23.600;2023-02-27T03:43:30;94714.28;;;8.72;100.00
40245;BME280;25963;42.694;23.600;2023-02-27T03:46:12;94724.16;;;8.77;100.00
40245;BME280;25963;42.694;23.600;2023-02-27T03:48:40;94738.19;;;8.71;100.00
40245;BME280;25963;42.694;23.600;2023-02-27T03:51:13;94750.66;;;8.75;100.00
40245;BME280;25963;42.694;23.600;2023-02-27T03:56:24;94735.56;;;8.71;100.00
40245;BME280;25963;42.694;23.600;2023-02-27T03:58:52;94744.63;;;8.93;100.00
40245;BME280;25963;42.694;23.600;2023-02-27T04:01:18;94744.22;;;8.96;100.00
40245;BME280;25963;42.694;23.600;2023-02-27T04:03:57;94740.56;;;8.72;100.00
40245;BME280;25963;42.694;23.600;2023-02-27T04:06:25;94742.78;;;8.75;100.00
40245;BME280;25963;42.694;23.600;2023-02-27T04:12:32;94747.13;;;8.31;100.00
40245;BME280;25963;42.694;23.600;2023-02-27T04:20:28;94753.13;;;8.45;100.00
40245;BME280;25963;42.694;23.600;2023-02-27T04:23:18;94745.84;;;8.47;100.00
40245;BME280;25963;42.694;23.600;2023-02-27T04:28:44;94762.59;;;8.53;100.00
40245;BME280;25963;42.694;23.600;2023-02-27T04:38:53;94787.13;;;8.40;100.00
40245;BME280;25963;42.694;23.600;2023-02-27T04:41:26;94800.63;;;8.12;100.00
40245;BME280;25963;42.694;23.600;2023-02-27T04:43:53;94817.38;;;8.17;100.00
40245;BME280;25963;42.694;23.600;2023-02-27T04:46:23;94817.84;;;8.08;100.00
40245;BME280;25963;42.694;23.600;2023-02-27T04:49:03;94833.06;;;7.86;100.00
40245;BME280;25963;42.694;23.600;2023-02-27T04:54:40;94877.78;;;7.52;100.00
40245;BME280;25963;42.694;23.600;2023-02-27T04:57:16;94874.78;;;7.29;100.00
40245;BME280;25963;42.694;23.600;2023-02-27T04:59:48;94878.03;;;7.11;100.00
40245;BME280;25963;42.694;23.600;2023-02-27T05:02:19;94890.16;;;6.85;100.00
40245;BME280;25963;42.694;23.600;2023-02-27T05:04:52;94889.31;;;6.78;100.00
40245;BME280;25963;42.694;23.600;2023-02-27T05:07:22;94902.44;;;6.78;100.00
40245;BME280;25963;42.694;23.600;2023-02-27T05:09:57;94920.19;;;6.83;100.00
40245;BME280;25963;42.694;23.600;2023-02-27T05:12:35;94933.63;;;6.53;100.00
40245;BME280;25963;42.694;23.600;2023-02-27T05:15:17;94927.38;;;6.48;100.00
40245;BME280;25963;42.694;23.600;2023-02-27T05:17:47;94926.03;;;6.10;100.00
40245;BME280;25963;42.694;23.600;2023-02-27T05:20:14;94929.06;;;6.14;100.00
40245;BME280;25963;42.694;23.600;2023-02-27T05:23:04;94942.19;;;6.21;100.00
40245;BME280;25963;42.694;23.600;2023-02-27T05:28:29;94969.13;;;6.08;100.00
40245;BME280;25963;42.694;23.600;2023-02-27T05:33:33;94988.19;;;5.95;100.00
40245;BME280;25963;42.694;23.600;2023-02-27T05:36:11;94988.63;;;5.99;100.00
40245;BME280;25963;42.694;23.600;2023-02-27T05:38:48;94977.25;;;5.91;100.00
40245;BME280;25963;42.694;23.600;2023-02-27T05:41:24;94971.66;;;5.94;100.00
40245;BME280;25963;42.694;23.600;2023-02-27T05:44:14;94969.59;;;5.90;100.00
40245;BME280;25963;42.694;23.600;2023-02-27T05:46:45;94959.06;;;5.83;100.00
40245;BME280;25963;42.694;23.600;2023-02-27T05:49:17;94966.66;;;6.00;100.00
40245;BME280;25963;42.694;23.600;2023-02-27T05:51:49;94978.94;;;5.99;100.00
40245;BME280;25963;42.694;23.600;2023-02-27T05:54:22;94981.38;;;6.01;100.00
40245;BME280;25963;42.694;23.600;2023-02-27T05:56:52;94980.66;;;6.13;100.00
40245;BME280;25963;42.694;23.600;2023-02-27T06:01:57;94989.59;;;5.98;100.00
40245;BME280;25963;42.694;23.600;2023-02-27T06:04:23;94987.41;;;6.01;100.00
40245;BME280;25963;42.694;23.600;2023-02-27T06:06:48;94998.75;;;6.08;100.00
40245;BME280;25963;42.694;23.600;2023-02-27T06:09:14;95006.47;;;6.23;100.00
40245;BME280;25963;42.694;23.600;2023-02-27T06:11:40;95014.91;;;6.18;100.00
40245;BME280;25963;42.694;23.600;2023-02-27T06:14:07;95020.91;;;6.12;100.00
40245;BME280;25963;42.694;23.600;2023-02-27T06:16:33;95021.25;;;6.37;100.00
40245;BME280;25963;42.694;23.600;2023-02-27T06:19:02;95020.66;;;6.42;100.00
40245;BME280;25963;42.694;23.600;2023-02-27T06:21:28;95032.59;;;6.51;100.00
40245;BME280;25963;42.694;23.600;2023-02-27T06:23:53;95029.69;;;6.74;100.00
40245;BME280;25963;42.694;23.600;2023-02-27T06:26:19;95033.72;;;6.77;100.00
40245;BME280;25963;42.694;23.600;2023-02-27T06:28:44;95030.09;;;6.78;100.00
40245;BME280;25963;42.694;23.600;2023-02-27T06:31:10;95029.19;;;7.12;100.00
40245;BME280;25963;42.694;23.600;2023-02-27T06:33:36;95034.66;;;7.30;100.00
40245;BME280;25963;42.694;23.600;2023-02-27T06:36:02;95033.66;;;7.58;100.00
40245;BME280;25963;42.694;23.600;2023-02-27T06:38:27;95033.06;;;7.69;100.00
40245;BME280;25963;42.694;23.600;2023-02-27T06:40:52;95034.09;;;7.75;100.00
40245;BME280;25963;42.694;23.600;2023-02-27T06:43:18;95054.06;;;7.96;100.00
40245;BME280;25963;42.694;23.600;2023-02-27T06:45:46;95056.47;;;8.04;100.00
40245;BME280;25963;42.694;23.600;2023-02-27T06:48:12;95059.69;;;8.26;100.00
40245;BME280;25963;42.694;23.600;2023-02-27T06:50:39;95065.34;;;8.30;100.00
40245;BME280;25963;42.694;23.600;2023-02-27T06:53:04;95059.50;;;8.01;100.00
40245;BME280;25963;42.694;23.600;2023-02-27T06:55:31;95058.69;;;7.81;100.00
40245;BME280;25963;42.694;23.600;2023-02-27T06:57:57;95046.00;;;7.58;100.00
40245;BME280;25963;42.694;23.600;2023-02-27T07:00:23;95039.06;;;7.17;100.00
40245;BME280;25963;42.694;23.600;2023-02-27T07:02:48;95039.88;;;7.11;100.00
40245;BME280;25963;42.694;23.600;2023-02-27T07:05:14;95038.16;;;6.76;100.00
40245;BME280;25963;42.694;23.600;2023-02-27T07:07:40;95043.44;;;6.90;100.00
40245;BME280;25963;42.694;23.600;2023-02-27T07:10:08;95043.91;;;7.13;100.00
40245;BME280;25963;42.694;23.600;2023-02-27T07:12:36;95043.44;;;6.90;100.00
40245;BME280;25963;42.694;23.600;2023-02-27T07:15:01;95041.50;;;7.25;100.00
40245;BME280;25963;42.694;23.600;2023-02-27T07:17:27;95034.25;;;7.53;100.00
40245;BME280;25963;42.694;23.600;2023-02-27T07:19:52;95049.41;;;7.91;100.00
40245;BME280;25963;42.694;23.600;2023-02-27T07:22:18;95041.53;;;7.98;100.00
40245;BME280;25963;42.694;23.600;2023-02-27T07:24:44;95061.47;;;7.19;100.00
40245;BME280;25963;42.694;23.600;2023-02-27T07:27:09;95058.06;;;7.19;100.00
40245;BME280;25963;42.694;23.600;2023-02-27T07:29:34;95068.59;;;7.65;100.00
40245;BME280;25963;42.694;23.600;2023-02-27T07:32:00;95078.28;;;7.71;100.00
40245;BME280;25963;42.694;23.600;2023-02-27T07:34:26;95078.09;;;7.80;100.00
40245;BME280;25963;42.694;23.600;2023-02-27T07:36:52;95075.06;;;7.83;100.00
40245;BME280;25963;42.694;23.600;2023-02-27T07:39:17;95082.91;;;8.36;100.00
40245;BME280;25963;42.694;23.600;2023-02-27T07:41:45;95094.88;;;8.32;100.00
40245;BME280;25963;42.694;23.600;2023-02-27T07:44:10;95095.88;;;8.44;100.00
40245;BME280;25963;42.694;23.600;2023-02-27T07:46:37;95090.97;;;8.61;100.00
40245;BME280;25963;42.694;23.600;2023-02-27T07:49:04;95086.75;;;8.33;100.00
40245;BME280;25963;42.694;23.600;2023-02-27T07:51:29;95089.19;;;8.48;100.00
40245;BME280;25963;42.694;23.600;2023-02-27T07:53:56;95093.78;;;8.73;100.00
40245;BME280;25963;42.694;23.600;2023-02-27T07:56:22;95079.22;;;8.77;100.00
40245;BME280;25963;42.694;23.600;2023-02-27T07:58:48;95090.41;;;8.45;100.00
40245;BME280;25963;42.694;23.600;2023-02-27T08:01:14;95085.97;;;8.33;100.00
40245;BME280;25963;42.694;23.600;2023-02-27T08:03:40;95081.53;;;8.47;100.00
40245;BME280;25963;42.694;23.600;2023-02-27T08:06:05;95099.88;;;8.60;100.00
40245;BME280;25963;42.694;23.600;2023-02-27T08:08:31;95095.00;;;8.63;100.00
40245;BME280;25963;42.694;23.600;2023-02-27T08:10:58;95098.06;;;8.60;100.00
40245;BME280;25963;42.694;23.600;2023-02-27T08:13:25;95104.09;;;8.74;100.00
40245;BME280;25963;42.694;23.600;2023-02-27T08:15:50;95109.66;;;9.04;100.00
40245;BME280;25963;42.694;23.600;2023-02-27T08:18:16;95106.03;;;8.99;100.00
40245;BME280;25963;42.694;23.600;2023-02-27T08:20:41;95109.47;;;8.99;100.00
40245;BME280;25963;42.694;23.600;2023-02-27T08:23:06;95098.34;;;8.97;100.00
40245;BME280;25963;42.694;23.600;2023-02-27T08:25:34;95079.03;;;9.17;100.00
40245;BME280;25963;42.694;23.600;2023-02-27T08:27:59;95088.22;;;9.01;100.00
40245;BME280;25963;42.694;23.600;2023-02-27T08:30:25;95088.47;;;9.31;100.00
40245;BME280;25963;42.694;23.600;2023-02-27T08:32:51;95081.72;;;9.48;100.00
40245;BME280;25963;42.694;23.600;2023-02-27T08:35:17;95084.38;;;9.73;100.00
40245;BME280;25963;42.694;23.600;2023-02-27T08:37:42;95083.44;;;9.86;100.00
40245;BME280;25963;42.694;23.600;2023-02-27T08:40:08;95085.44;;;10.16;100.00
40245;BME280;25963;42.694;23.600;2023-02-27T08:42:35;95086.28;;;10.60;100.00
40245;BME280;25963;42.694;23.600;2023-02-27T08:45:01;95099.19;;;11.05;100.00
40245;BME280;25963;42.694;23.600;2023-02-27T08:47:27;95106.28;;;11.23;100.00
40245;BME280;25963;42.694;23.600;2023-02-27T08:49:52;95114.41;;;11.21;100.00
40245;BME280;25963;42.694;23.600;2023-02-27T08:52:17;95115.84;;;11.35;100.00
40245;BME280;25963;42.694;23.600;2023-02-27T08:54:43;95107.19;;;11.47;100.00
40245;BME280;25963;42.694;23.600;2023-02-27T08:57:09;95123.97;;;11.52;100.00
40245;BME280;25963;42.694;23.600;2023-02-27T08:59:34;95124.03;;;11.46;100.00
40245;BME280;25963;42.694;23.600;2023-02-27T09:01:59;95129.31;;;11.64;100.00
40245;BME280;25963;42.694;23.600;2023-02-27T09:04:25;95125.94;;;11.57;100.00
40245;BME280;25963;42.694;23.600;2023-02-27T09:06:51;95135.88;;;11.73;100.00
40245;BME280;25963;42.694;23.600;2023-02-27T09:09:18;95123.34;;;11.99;100.00
40245;BME280;25963;42.694;23.600;2023-02-27T09:11:43;95133.34;;;11.97;98.01
40245;BME280;25963;42.694;23.600;2023-02-27T09:14:11;95137.72;;;12.03;100.00
40245;BME280;25963;42.694;23.600;2023-02-27T09:16:36;95127.63;;;12.23;100.00
40245;BME280;25963;42.694;23.600;2023-02-27T09:19:02;95137.38;;;12.11;97.94
40245;BME280;25963;42.694;23.600;2023-02-27T09:21:28;95125.78;;;12.12;100.00
40245;BME280;25963;42.694;23.600;2023-02-27T09:23:54;95130.28;;;12.12;96.41
40245;BME280;25963;42.694;23.600;2023-02-27T09:26:22;95138.59;;;12.39;100.00
40245;BME280;25963;42.694;23.600;2023-02-27T09:28:48;95135.13;;;12.62;100.00
40245;BME280;25963;42.694;23.600;2023-02-27T09:31:13;95134.53;;;12.95;100.00
40245;BME280;25963;42.694;23.600;2023-02-27T09:33:39;95139.72;;;13.13;97.49
40245;BME280;25963;42.694;23.600;2023-02-27T09:36:05;95138.78;;;13.19;91.53
40245;BME280;25963;42.694;23.600;2023-02-27T09:38:32;95130.94;;;13.13;100.00
40245;BME280;25963;42.694;23.600;2023-02-27T09:40:58;95137.69;;;13.44;97.98
40245;BME280;25963;42.694;23.600;2023-02-27T09:43:43;95146.72;;;13.08;90.66
40245;BME280;25963;42.694;23.600;2023-02-27T09:46:21;95147.66;;;13.01;94.08
40245;BME280;25963;42.694;23.600;2023-02-27T09:51:18;95149.00;;;13.16;96.40
40245;BME280;25963;42.694;23.600;2023-02-27T09:53:47;95154.59;;;12.67;97.72
40245;BME280;25963;42.694;23.600;2023-02-27T09:56:21;95161.84;;;12.84;97.88
40245;BME280;25963;42.694;23.600;2023-02-27T10:01:56;95164.00;;;12.40;96.43
40245;BME280;25963;42.694;23.600;2023-02-27T10:17:23;95161.44;;;13.39;94.92
40245;BME280;25963;42.694;23.600;2023-02-27T10:19:52;95155.97;;;13.86;97.46
40245;BME280;25963;42.694;23.600;2023-02-27T10:22:32;95158.09;;;14.01;98.98
40245;BME280;25963;42.694;23.600;2023-02-27T10:25:11;95160.41;;;13.97;93.10
40245;BME280;25963;42.694;23.600;2023-02-27T10:27:38;95153.00;;;13.99;93.06
40245;BME280;25963;42.694;23.600;2023-02-27T10:30:30;95155.81;;;13.92;95.98
40245;BME280;25963;42.694;23.600;2023-02-27T10:33:03;95156.75;;;14.15;97.99
40245;BME280;25963;42.694;23.600;2023-02-27T10:35:36;95153.38;;;14.20;97.43
40245;BME280;25963;42.694;23.600;2023-02-27T10:38:08;95158.56;;;13.98;90.54
40245;BME280;25963;42.694;23.600;2023-02-27T10:40:37;95151.63;;;13.80;91.90
40245;BME280;25963;42.694;23.600;2023-02-27T10:43:04;95142.88;;;13.96;95.02
40245;BME280;25963;42.694;23.600;2023-02-27T10:45:29;95140.72;;;13.93;91.47
40245;BME280;25963;42.694;23.600;2023-02-27T10:47:56;95133.59;;;13.65;89.52
40245;BME280;25963;42.694;23.600;2023-02-27T10:50:34;95137.31;;;13.52;92.54
40245;BME280;25963;42.694;23.600;2023-02-27T10:53:02;95121.50;;;13.29;97.51
40245;BME280;25963;42.694;23.600;2023-02-27T10:55:34;95120.88;;;13.67;98.13
40245;BME280;25963;42.694;23.600;2023-02-27T10:58:01;95123.84;;;13.99;96.58
40245;BME280;25963;42.694;23.600;2023-02-27T11:00:40;95116.06;;;14.09;95.14
40245;BME280;25963;42.694;23.600;2023-02-27T11:03:21;95120.53;;;14.09;94.56
40245;BME280;25963;42.694;23.600;2023-02-27T11:08:43;95116.63;;;14.79;91.74
40245;BME280;25963;42.694;23.600;2023-02-27T11:11:10;95097.69;;;15.36;97.86
40245;BME280;25963;42.694;23.600;2023-02-27T11:13:41;95104.97;;;15.68;91.45
40245;BME280;25963;42.694;23.600;2023-02-27T11:16:11;95107.13;;;15.71;84.33
40245;BME280;25963;42.694;23.600;2023-02-27T11:18:39;95099.84;;;15.39;86.77
40245;BME280;25963;42.694;23.600;2023-02-27T11:23:37;95099.78;;;14.51;85.61
40245;BME280;25963;42.694;23.600;2023-02-27T11:31:47;95075.31;;;15.32;88.76
40245;BME280;25963;42.694;23.600;2023-02-27T11:34:28;95069.66;;;15.50;82.14
40245;BME280;25963;42.694;23.600;2023-02-27T11:36:58;95073.06;;;15.68;88.41
40245;BME280;25963;42.694;23.600;2023-02-27T11:41:58;95059.75;;;16.32;83.65
40245;BME280;25963;42.694;23.600;2023-02-27T11:44:30;95067.31;;;16.08;80.74
40245;BME280;25963;42.694;23.600;2023-02-27T11:47:15;95069.22;;;16.13;79.16
40245;BME280;25963;42.694;23.600;2023-02-27T11:52:28;95069.56;;;16.22;78.76
40245;BME280;25963;42.694;23.600;2023-02-27T11:55:00;95064.25;;;16.27;78.93
40245;BME280;25963;42.694;23.600;2023-02-27T11:57:34;95066.91;;;16.64;79.28
40245;BME280;25963;42.694;23.600;2023-02-27T12:00:17;95049.00;;;16.97;79.04
40245;BME280;25963;42.694;23.600;2023-02-27T12:05:21;95065.06;;;17.22;76.95
40245;BME280;25963;42.694;23.600;2023-02-27T12:07:52;95075.97;;;16.68;78.15
40245;BME280;25963;42.694;23.600;2023-02-27T12:10:20;95066.81;;;16.54;78.69
40245;BME280;25963;42.694;23.600;2023-02-27T12:12:51;95068.38;;;16.44;77.97
40245;BME280;25963;42.694;23.600;2023-02-27T12:15:49;95063.44;;;16.26;81.64
40245;BME280;25963;42.694;23.600;2023-02-27T12:23:34;95067.50;;;15.47;87.15
40245;BME280;25963;42.694;23.600;2023-02-27T12:26:09;95075.38;;;15.15;86.10
40245;BME280;25963;42.694;23.600;2023-02-27T12:31:43;95072.50;;;14.56;88.02
40245;BME280;25963;42.694;23.600;2023-02-27T12:34:23;95071.59;;;14.00;93.43
40245;BME280;25963;42.694;23.600;2023-02-27T12:36:52;95071.44;;;14.23;97.83
40245;BME280;25963;42.694;23.600;2023-02-27T12:39:19;95080.44;;;14.05;100.00
40245;BME280;25963;42.694;23.600;2023-02-27T12:50:37;95055.94;;;14.15;99.64
40245;BME280;25963;42.694;23.600;2023-02-27T12:53:27;95066.44;;;14.27;98.08
40245;BME280;25963;42.694;23.600;2023-02-27T12:56:19;95063.97;;;14.20;100.00
40245;BME280;25963;42.694;23.600;2023-02-27T13:09:58;95075.13;;;14.05;100.00
40245;BME280;25963;42.694;23.600;2023-02-27T13:12:33;95069.78;;;14.00;100.00
40245;BME280;25963;42.694;23.600;2023-02-27T13:15:07;95076.59;;;13.79;100.00
40245;BME280;25963;42.694;23.600;2023-02-27T13:17:44;95069.34;;;13.75;100.00
40245;BME280;25963;42.694;23.600;2023-02-27T13:22:55;95068.88;;;13.09;100.00
40245;BME280;25963;42.694;23.600;2023-02-27T13:25:23;95063.25;;;13.05;100.00
40245;BME280;25963;42.694;23.600;2023-02-27T13:27:59;95067.16;;;13.14;100.00
40245;BME280;25963;42.694;23.600;2023-02-27T13:30:31;95084.38;;;13.40;100.00
40245;BME280;25963;42.694;23.600;2023-02-27T13:36:20;95071.72;;;13.31;100.00
40245;BME280;25963;42.694;23.600;2023-02-27T13:38:50;95045.91;;;12.86;100.00
40245;BME280;25963;42.694;23.600;2023-02-27T13:43:59;95062.03;;;12.96;100.00
40245;BME280;25963;42.694;23.600;2023-02-27T13:46:32;95066.53;;;12.95;100.00
40245;BME280;25963;42.694;23.600;2023-02-27T13:56:46;95065.69;;;12.95;100.00
40245;BME280;25963;42.694;23.600;2023-02-27T14:02:05;95077.59;;;12.81;100.00
40245;BME280;25963;42.694;23.600;2023-02-27T14:04:53;95080.25;;;12.10;100.00
40245;BME280;25963;42.694;23.600;2023-02-27T14:07:22;95080.03;;;12.00;100.00
40245;BME280;25963;42.694;23.600;2023-02-27T14:10:01;95076.34;;;11.29;100.00
40245;BME280;25963;42.694;23.600;2023-02-27T14:12:31;95067.72;;;11.33;100.00
40245;BME280;25963;42.694;23.600;2023-02-27T14:14:59;95076.28;;;11.17;100.00
40245;BME280;25963;42.694;23.600;2023-02-27T14:25:16;95072.63;;;10.19;100.00
40245;BME280;25963;42.694;23.600;2023-02-27T14:33:02;95111.75;;;9.66;100.00
40245;BME280;25963;42.694;23.600;2023-02-27T14:35:30;95122.84;;;9.74;100.00
40245;BME280;25963;42.694;23.600;2023-02-27T14:37:58;95135.03;;;10.00;100.00
40245;BME280;25963;42.694;23.600;2023-02-27T14:40:30;95141.47;;;10.04;100.00
40245;BME280;25963;42.694;23.600;2023-02-27T14:43:19;95164.28;;;9.92;100.00
40245;BME280;25963;42.694;23.600;2023-02-27T14:45:49;95161.81;;;9.97;100.00
40245;BME280;25963;42.694;23.600;2023-02-27T14:48:25;95154.28;;;9.31;100.00
40245;BME280;25963;42.694;23.600;2023-02-27T14:50:52;95137.28;;;9.27;100.00
40245;BME280;25963;42.694;23.600;2023-02-27T14:53:27;95144.38;;;9.26;100.00
40245;BME280;25963;42.694;23.600;2023-02-27T14:55:55;95156.13;;;9.24;100.00
40245;BME280;25963;42.694;23.600;2023-02-27T14:58:22;95159.00;;;9.16;100.00
40245;BME280;25963;42.694;23.600;2023-02-27T15:03:37;95186.03;;;8.78;100.00
40245;BME280;25963;42.694;23.600;2023-02-27T15:06:13;95190.28;;;8.65;100.00
40245;BME280;25963;42.694;23.600;2023-02-27T15:08:40;95197.16;;;8.60;100.00
40245;BME280;25963;42.694;23.600;2023-02-27T15:11:07;95212.34;;;8.58;100.00
40245;BME280;25963;42.694;23.600;2023-02-27T15:13:37;95216.59;;;8.39;100.00
40245;BME280;25963;42.694;23.600;2023-02-27T15:18:53;95202.53;;;7.72;100.00
40245;BME280;25963;42.694;23.600;2023-02-27T15:21:22;95229.09;;;8.17;100.00
40245;BME280;25963;42.694;23.600;2023-02-27T15:24:06;95241.63;;;8.21;100.00
40245;BME280;25963;42.694;23.600;2023-02-27T15:26:38;95265.09;;;8.30;100.00
40245;BME280;25963;42.694;23.600;2023-02-27T15:29:05;95281.47;;;8.32;100.00
40245;BME280;25963;42.694;23.600;2023-02-27T15:31:33;95278.81;;;8.18;100.00
40245;BME280;25963;42.694;23.600;2023-02-27T15:34:00;95271.53;;;8.34;100.00
40245;BME280;25963;42.694;23.600;2023-02-27T15:36:32;95269.31;;;8.24;100.00
40245;BME280;25963;42.694;23.600;2023-02-27T15:39:12;95276.41;;;8.23;100.00
40245;BME280;25963;42.694;23.600;2023-02-27T15:44:19;95273.44;;;8.53;100.00
40245;BME280;25963;42.694;23.600;2023-02-27T15:46:48;95262.22;;;8.24;100.00
40245;BME280;25963;42.694;23.600;2023-02-27T15:49:19;95261.81;;;8.14;100.00
40245;BME280;25963;42.694;23.600;2023-02-27T15:51:46;95267.50;;;8.24;100.00
40245;BME280;25963;42.694;23.600;2023-02-27T15:54:12;95268.16;;;8.47;100.00
40245;BME280;25963;42.694;23.600;2023-02-27T15:56:38;95278.28;;;8.56;100.00